createdAt,value
2019-03-29T00:05:25.909Z,102918.79
2019-03-29T00:07:54.523Z,102917.05
2019-03-29T00:10:23.145Z,102921.39
2019-03-29T00:12:52.063Z,102920.52
2019-03-29T00:15:20.696Z,102917.91
2019-03-29T00:17:49.505Z,102920.91
2019-03-29T00:20:18.111Z,102919.22
2019-03-29T00:22:49.498Z,102911.83
2019-03-29T00:25:18.113Z,102907.92
2019-03-29T00:27:49.902Z,102907.08
2019-03-29T00:30:18.455Z,102908.80
2019-03-29T00:33:04.746Z,102912.70
2019-03-29T00:35:34.124Z,102901.00
2019-03-29T00:38:03.081Z,102904.02
2019-03-29T00:40:31.748Z,102901.86
2019-03-29T00:43:01.187Z,102901.02
2019-03-29T00:45:29.831Z,102900.58
2019-03-29T00:47:58.437Z,102898.86
2019-03-29T00:50:27.418Z,102896.25
2019-03-29T00:52:56.068Z,102898.41
2019-03-29T00:55:24.678Z,102897.96
2019-03-29T00:57:53.286Z,102891.05
2019-03-29T01:00:22.102Z,102888.45
2019-03-29T01:02:50.668Z,102887.17
2019-03-29T01:05:19.322Z,102877.62
2019-03-29T01:07:47.939Z,102875.48
2019-03-29T01:10:18.201Z,102879.80
2019-03-29T01:12:49.471Z,102873.30
2019-03-29T01:15:18.205Z,102865.92
2019-03-29T01:17:49.997Z,102862.45
2019-03-29T01:20:18.649Z,102865.94
2019-03-29T01:22:47.210Z,102866.38
2019-03-29T01:25:17.385Z,102866.80
2019-03-29T01:27:46.319Z,102873.28
2019-03-29T01:30:15.134Z,102859.41
2019-03-29T01:32:44.880Z,102860.72
2019-03-29T01:35:13.783Z,102855.55
2019-03-29T01:37:42.405Z,102858.14
2019-03-29T01:40:11.309Z,102862.91
2019-03-29T01:42:39.865Z,102857.72
2019-03-29T01:45:09.763Z,102859.87
2019-03-29T01:47:38.366Z,102859.03
2019-03-29T01:50:08.132Z,102856.82
2019-03-29T01:52:37.403Z,102858.16
2019-03-29T01:55:07.227Z,102858.11
2019-03-29T01:57:36.126Z,102852.94
2019-03-29T02:00:06.433Z,102846.01
2019-03-29T02:02:34.994Z,102845.13
2019-03-29T02:05:04.917Z,102846.86
2019-03-29T02:07:33.490Z,102839.50
2019-03-29T02:10:02.072Z,102839.08
2019-03-29T02:12:31.018Z,102839.91
2019-03-29T02:15:00.047Z,102835.63
2019-03-29T02:17:28.666Z,102843.39
2019-03-29T02:19:58.104Z,102842.09
2019-03-29T02:22:26.716Z,102846.43
2019-03-29T02:24:55.337Z,102846.00
2019-03-29T02:27:23.945Z,102845.58
2019-03-29T02:29:52.560Z,102839.08
2019-03-29T02:32:21.432Z,102835.61
2019-03-29T02:34:50.093Z,102835.19
2019-03-29T02:37:18.706Z,102825.64
2019-03-29T02:39:47.418Z,102829.99
2019-03-29T02:42:16.362Z,102834.75
2019-03-29T02:44:46.809Z,102838.23
2019-03-29T02:47:18.187Z,102833.00
2019-03-29T02:49:50.195Z,102830.44
2019-03-29T02:52:18.753Z,102830.44
2019-03-29T02:54:47.403Z,102837.35
2019-03-29T02:57:17.652Z,102832.16
2019-03-29T02:59:49.438Z,102836.91
2019-03-29T03:02:18.048Z,102833.47
2019-03-29T03:04:48.304Z,102838.23
2019-03-29T03:07:19.972Z,102836.92
2019-03-29T03:09:48.701Z,102836.48
2019-03-29T03:12:17.324Z,102839.06
2019-03-29T03:14:47.462Z,102832.16
2019-03-29T03:17:16.233Z,102838.66
2019-03-29T03:19:46.560Z,102842.56
2019-03-29T03:22:15.185Z,102840.39
2019-03-29T03:24:43.801Z,102838.23
2019-03-29T03:27:12.410Z,102843.45
2019-03-29T03:29:40.998Z,102847.33
2019-03-29T03:32:09.569Z,102839.56
2019-03-29T03:34:38.203Z,102833.06
2019-03-29T03:37:06.792Z,102834.78
2019-03-29T03:39:35.497Z,102835.63
2019-03-29T03:42:04.207Z,102836.50
2019-03-29T03:44:32.818Z,102836.07
2019-03-29T03:47:01.427Z,102844.28
2019-03-29T03:49:30.042Z,102844.75
2019-03-29T03:51:58.854Z,102840.39
2019-03-29T03:54:27.667Z,102845.16
2019-03-29T03:56:56.589Z,102845.16
2019-03-29T03:59:26.527Z,102849.92
2019-03-29T04:01:55.131Z,102856.44
2019-03-29T04:04:23.841Z,102852.95
2019-03-29T04:06:52.451Z,102853.39
2019-03-29T04:09:21.046Z,102850.36
2019-03-29T04:11:49.624Z,102853.39
2019-03-29T04:14:18.287Z,102849.92
2019-03-29T04:16:46.899Z,102849.50
2019-03-29T04:19:15.511Z,102847.31
2019-03-29T04:21:46.450Z,102850.79
2019-03-29T04:24:15.215Z,102851.23
2019-03-29T04:26:43.824Z,102849.50
2019-03-29T04:29:12.430Z,102855.56
2019-03-29T04:31:41.040Z,102849.95
2019-03-29T04:34:09.655Z,102846.47
2019-03-29T04:36:38.265Z,102851.22
2019-03-29T04:39:07.080Z,102845.59
2019-03-29T04:41:35.706Z,102842.14
2019-03-29T04:44:04.597Z,102850.36
2019-03-29T04:46:33.324Z,102849.91
2019-03-29T04:49:01.936Z,102849.90
2019-03-29T04:51:30.813Z,102844.72
2019-03-29T04:53:59.459Z,102848.59
2019-03-29T04:56:28.071Z,102847.73
2019-03-29T04:58:56.681Z,102846.44
2019-03-29T05:01:25.358Z,102849.02
2019-03-29T05:03:53.946Z,102845.12
2019-03-29T05:06:22.611Z,102855.06
2019-03-29T05:08:51.216Z,102855.53
2019-03-29T05:11:19.772Z,102854.20
2019-03-29T05:13:48.435Z,102857.67
2019-03-29T05:16:16.995Z,102850.31
2019-03-29T05:18:45.659Z,102852.94
2019-03-29T05:21:15.154Z,102850.35
2019-03-29T05:23:43.804Z,102845.12
2019-03-29T05:26:19.836Z,102849.03
2019-03-29T05:28:48.737Z,102844.70
2019-03-29T05:34:18.700Z,102845.55
2019-03-29T05:36:47.262Z,102842.50
2019-03-29T05:39:17.623Z,102847.70
2019-03-29T05:41:49.313Z,102847.69
2019-03-29T05:44:17.972Z,102848.58
2019-03-29T05:46:48.177Z,102857.23
2019-03-29T05:49:19.870Z,102854.66
2019-03-29T05:51:48.478Z,102858.95
2019-03-29T05:54:17.089Z,102853.33
2019-03-29T05:56:45.696Z,102853.28
2019-03-29T05:59:16.999Z,102849.84
2019-03-29T06:01:45.569Z,102851.57
2019-03-29T06:04:14.513Z,102858.08
2019-03-29T06:06:43.116Z,102851.55
2019-03-29T06:09:11.832Z,102854.19
2019-03-29T06:11:40.462Z,102855.95
2019-03-29T06:14:09.049Z,102846.75
2019-03-29T06:16:39.301Z,102847.59
2019-03-29T06:19:08.143Z,102841.11
2019-03-29T06:21:37.766Z,102840.28
2019-03-29T06:24:06.376Z,102841.06
2019-03-29T06:26:34.984Z,102830.22
2019-03-29T06:29:03.576Z,102837.22
2019-03-29T06:31:32.520Z,102836.70
2019-03-29T06:34:01.128Z,102840.93
2019-03-29T06:36:31.800Z,102838.77
2019-03-29T06:39:01.741Z,102838.73
2019-03-29T06:41:30.296Z,102840.39
2019-03-29T06:43:59.293Z,102838.27
2019-03-29T06:46:27.915Z,102841.69
2019-03-29T06:48:56.950Z,102842.46
2019-03-29T06:51:25.500Z,102844.95
2019-03-29T06:53:54.173Z,102846.23
2019-03-29T06:56:22.812Z,102840.52
2019-03-29T06:58:51.415Z,102842.80
2019-03-29T07:01:20.032Z,102846.99
2019-03-29T07:03:48.747Z,102844.38
2019-03-29T07:06:17.359Z,102842.63
2019-03-29T07:08:47.548Z,102846.11
2019-03-29T07:11:19.406Z,102840.45
2019-03-29T07:13:57.492Z,102845.25
2019-03-29T07:16:18.368Z,102848.69
2019-03-29T07:18:46.976Z,102850.83
2019-03-29T07:21:21.534Z,102851.61
2019-03-29T07:23:48.056Z,102845.91
2019-03-29T07:26:19.488Z,102850.59
2019-03-29T07:28:48.447Z,102853.58
2019-03-29T07:31:17.113Z,102847.43
2019-03-29T07:33:47.264Z,102849.97
2019-03-29T07:36:17.424Z,102851.69
2019-03-29T07:38:49.019Z,102853.86
2019-03-29T07:41:31.174Z,102851.24
2019-03-29T07:43:47.900Z,102855.16
2019-03-29T07:46:18.160Z,102850.43
2019-03-29T07:48:49.612Z,102860.08
2019-03-29T07:51:18.196Z,102857.05
2019-03-29T07:53:49.740Z,102861.00
2019-03-29T07:56:18.351Z,102856.27
2019-03-29T07:58:47.375Z,102859.94
2019-03-29T08:01:18.919Z,102852.08
2019-03-29T08:03:47.580Z,102847.73
2019-03-29T08:06:17.241Z,102853.57
2019-03-29T08:08:47.358Z,102850.71
2019-03-29T08:11:26.124Z,102851.93
2019-03-29T08:13:48.231Z,102850.83
2019-03-29T08:16:19.470Z,102852.34
2019-03-29T08:18:48.389Z,102850.67
2019-03-29T08:21:17.624Z,102855.73
2019-03-29T08:23:46.212Z,102854.28
2019-03-29T08:26:16.497Z,102848.95
2019-03-29T08:28:45.464Z,102849.72
2019-03-29T08:31:15.856Z,102852.70
2019-03-29T08:33:44.826Z,102856.28
2019-03-29T08:36:13.465Z,102856.20
2019-03-29T08:38:42.082Z,102852.50
2019-03-29T08:41:10.723Z,102846.86
2019-03-29T08:43:39.844Z,102851.53
2019-03-29T08:46:08.572Z,102856.43
2019-03-29T08:48:37.179Z,102853.84
2019-03-29T08:51:05.919Z,102858.95
2019-03-29T08:53:34.558Z,102850.62
2019-03-29T08:56:03.302Z,102854.45
2019-03-29T08:58:32.027Z,102854.13
2019-03-29T09:01:00.840Z,102854.58
2019-03-29T09:03:30.025Z,102855.03
2019-03-29T09:05:58.664Z,102851.77
2019-03-29T09:08:27.633Z,102849.92
2019-03-29T09:10:56.386Z,102853.48
2019-03-29T09:13:25.148Z,102851.48
2019-03-29T09:15:53.812Z,102846.12
2019-03-29T09:18:25.740Z,102846.61
2019-03-29T09:20:53.127Z,102847.88
2019-03-29T09:23:23.363Z,102847.59
2019-03-29T09:25:52.499Z,102839.25
2019-03-29T09:28:21.112Z,102837.93
2019-03-29T09:30:49.715Z,102843.98
2019-03-29T09:33:18.323Z,102844.06
2019-03-29T09:35:47.037Z,102840.89
2019-03-29T09:38:15.666Z,102843.42
2019-03-29T09:40:52.202Z,102839.73
2019-03-29T09:43:16.568Z,102836.97
2019-03-29T09:45:45.714Z,102837.50
2019-03-29T09:48:17.305Z,102837.63
2019-03-29T09:50:50.449Z,102833.58
2019-03-29T09:53:18.212Z,102842.11
2019-03-29T09:55:53.163Z,102833.20
2019-03-29T09:58:20.049Z,102832.76
2019-03-29T10:00:49.268Z,102823.80
2019-03-29T10:03:17.997Z,102826.74
2019-03-29T10:05:48.115Z,102817.40
2019-03-29T10:08:20.062Z,102819.72
2019-03-29T10:10:49.017Z,102822.49
2019-03-29T10:13:17.626Z,102822.95
2019-03-29T10:15:51.282Z,102833.41
2019-03-29T10:18:19.581Z,102829.08
2019-03-29T10:20:48.421Z,102828.09
2019-03-29T10:23:17.069Z,102822.28
2019-03-29T10:25:46.169Z,102822.67
2019-03-29T10:28:16.900Z,102824.91
2019-03-29T10:30:46.862Z,102818.70
2019-03-29T10:33:17.251Z,102813.39
2019-03-29T10:35:52.293Z,102816.58
2019-03-29T10:38:18.378Z,102808.02
2019-03-29T10:40:47.344Z,102803.86
2019-03-29T10:43:17.581Z,102802.84
2019-03-29T10:45:49.393Z,102798.16
2019-03-29T10:48:18.214Z,102799.47
2019-03-29T10:50:50.889Z,102796.60
2019-03-29T10:53:19.467Z,102788.45
2019-03-29T10:55:48.418Z,102792.87
2019-03-29T10:58:18.641Z,102790.76
2019-03-29T11:00:47.275Z,102781.25
2019-03-29T11:03:17.349Z,102778.22
2019-03-29T11:05:47.474Z,102774.03
2019-03-29T11:08:19.400Z,102768.41
2019-03-29T11:10:48.104Z,102766.30
2019-03-29T11:13:18.301Z,102772.62
2019-03-29T11:15:49.665Z,102763.37
2019-03-29T11:18:18.231Z,102763.52
2019-03-29T11:20:50.377Z,102758.49
2019-03-29T11:23:19.087Z,102759.36
2019-03-29T11:25:48.841Z,102758.73
2019-03-29T11:28:17.753Z,102757.88
2019-03-29T11:30:46.779Z,102757.36
2019-03-29T11:33:18.168Z,102746.70
2019-03-29T11:35:50.174Z,102746.88
2019-03-29T11:38:18.734Z,102750.72
2019-03-29T11:40:47.290Z,102738.80
2019-03-29T11:43:26.454Z,102735.42
2019-03-29T11:45:48.015Z,102730.26
2019-03-29T11:48:38.772Z,102738.91
2019-03-29T11:51:18.629Z,102729.27
2019-03-29T11:53:39.880Z,102724.53
2019-03-29T11:56:08.317Z,102726.98
2019-03-29T11:58:37.028Z,102719.19
2019-03-29T12:01:05.751Z,102724.39
2019-03-29T12:03:34.555Z,102718.98
2019-03-29T12:06:03.165Z,102724.50
2019-03-29T12:08:31.747Z,102713.94
2019-03-29T12:11:00.794Z,102708.76
2019-03-29T12:13:40.475Z,102709.75
2019-03-29T12:15:59.760Z,102711.50
2019-03-29T12:18:28.369Z,102712.71
2019-03-29T12:20:57.077Z,102702.19
2019-03-29T12:23:26.002Z,102700.87
2019-03-29T12:25:54.719Z,102699.20
2019-03-29T12:28:23.335Z,102690.16
2019-03-29T12:30:51.949Z,102693.36
2019-03-29T12:33:20.991Z,102689.19
2019-03-29T12:35:49.703Z,102686.48
2019-03-29T12:38:18.275Z,102680.87
2019-03-29T12:40:47.552Z,102681.75
2019-03-29T12:43:18.860Z,102678.31
2019-03-29T12:45:47.469Z,102667.95
2019-03-29T12:48:18.963Z,102666.97
2019-03-29T12:50:47.575Z,102661.68
2019-03-29T12:53:18.948Z,102664.02
2019-03-29T12:55:47.658Z,102654.34
2019-03-29T12:58:16.339Z,102654.29
2019-03-29T13:00:46.732Z,102650.34
2019-03-29T13:03:18.235Z,102646.02
2019-03-29T13:05:50.081Z,102647.73
2019-03-29T13:08:18.634Z,102645.89
2019-03-29T13:10:47.432Z,102643.78
2019-03-29T13:13:18.821Z,102635.38
2019-03-29T13:15:47.541Z,102628.48
2019-03-29T13:18:19.136Z,102634.13
2019-03-29T13:20:47.858Z,102630.46
2019-03-29T13:23:17.123Z,102624.59
2019-03-29T13:25:45.801Z,102622.95
2019-03-29T13:28:17.204Z,102614.34
2019-03-29T13:30:47.460Z,102611.22
2019-03-29T13:33:20.767Z,102603.20
2019-03-29T13:36:08.630Z,102597.39
2019-03-29T13:41:31.173Z,102596.88
2019-03-29T13:44:03.783Z,102591.12
2019-03-29T13:46:38.327Z,102596.23
2019-03-29T13:49:06.904Z,102595.72
2019-03-29T13:51:35.979Z,102591.02
2019-03-29T13:54:10.006Z,102591.84
2019-03-29T13:56:39.050Z,102584.84
2019-03-29T13:59:11.556Z,102586.63
2019-03-29T14:01:41.008Z,102589.24
2019-03-29T14:04:09.611Z,102581.01
2019-03-29T14:06:38.431Z,102576.52
2019-03-29T14:09:07.990Z,102579.45
2019-03-29T14:11:37.100Z,102573.91
2019-03-29T14:14:05.710Z,102576.80
2019-03-29T14:16:34.324Z,102570.69
2019-03-29T14:19:03.197Z,102567.77
2019-03-29T14:21:39.058Z,102561.67
2019-03-29T14:24:07.016Z,102552.55
2019-03-29T14:26:36.035Z,102552.67
2019-03-29T14:29:16.971Z,102544.87
2019-03-29T14:31:54.187Z,102543.84
2019-03-29T14:34:22.675Z,102540.38
2019-03-29T14:36:51.292Z,102536.38
2019-03-29T14:39:19.900Z,102531.35
2019-03-29T14:41:48.622Z,102530.23
2019-03-29T14:44:17.474Z,102532.09
2019-03-29T14:46:48.827Z,102522.27
2019-03-29T14:49:17.378Z,102522.50
2019-03-29T14:51:47.604Z,102515.10
2019-03-29T14:54:19.496Z,102509.87
2019-03-29T14:56:48.105Z,102506.03
2019-03-29T14:59:18.200Z,102507.59
2019-03-29T15:01:49.508Z,102508.89
2019-03-29T15:04:18.351Z,102509.16
2019-03-29T15:06:47.174Z,102502.61
2019-03-29T15:09:16.101Z,102496.42
2019-03-29T15:11:44.921Z,102487.86
2019-03-29T15:14:15.524Z,102485.90
2019-03-29T15:16:44.605Z,102480.73
2019-03-29T15:19:13.210Z,102480.95
2019-03-29T15:21:41.824Z,102478.41
2019-03-29T15:24:10.454Z,102470.27
2019-03-29T15:26:39.049Z,102466.15
2019-03-29T15:29:07.671Z,102464.77
2019-03-29T15:31:36.287Z,102459.03
2019-03-29T15:34:10.815Z,102463.53
2019-03-29T15:36:39.515Z,102458.21
2019-03-29T15:39:08.378Z,102458.39
2019-03-29T15:41:36.954Z,102449.95
2019-03-29T15:44:05.499Z,102447.74
2019-03-29T15:46:34.116Z,102447.36
2019-03-29T15:49:02.671Z,102446.34
2019-03-29T15:51:31.349Z,102445.77
2019-03-29T15:54:00.082Z,102445.71
2019-03-29T15:56:28.712Z,102445.31
2019-03-29T15:58:57.272Z,102440.03
2019-03-29T16:01:25.854Z,102440.97
2019-03-29T16:03:54.492Z,102435.42
2019-03-29T16:06:23.074Z,102427.33
2019-03-29T16:08:51.629Z,102433.00
2019-03-29T16:11:22.529Z,102440.41
2019-03-29T16:13:50.506Z,102435.37
2019-03-29T16:16:19.115Z,102432.34
2019-03-29T16:18:47.745Z,102428.91
2019-03-29T16:21:16.729Z,102430.30
2019-03-29T16:23:48.368Z,102427.80
2019-03-29T16:26:16.993Z,102421.66
2019-03-29T16:28:45.952Z,102421.48
2019-03-29T16:31:14.703Z,102416.48
2019-03-29T16:33:43.837Z,102420.53
2019-03-29T16:36:12.575Z,102420.13
2019-03-29T16:38:41.223Z,102419.55
2019-03-29T16:41:09.770Z,102418.58
2019-03-29T16:43:38.359Z,102408.85
2019-03-29T16:46:07.386Z,102411.72
2019-03-29T16:48:36.035Z,102416.00
2019-03-29T16:51:04.660Z,102408.97
2019-03-29T16:53:33.310Z,102408.17
2019-03-29T16:56:02.341Z,102409.21
2019-03-29T16:58:31.395Z,102406.25
2019-03-29T17:00:59.992Z,102399.83
2019-03-29T17:03:28.623Z,102400.69
2019-03-29T17:05:57.259Z,102399.13
2019-03-29T17:08:25.828Z,102397.61
2019-03-29T17:10:54.388Z,102399.91
2019-03-29T17:13:22.976Z,102396.35
2019-03-29T17:16:01.845Z,102395.45
2019-03-29T17:18:29.089Z,102401.61
2019-03-29T17:20:52.743Z,102393.97
2019-03-29T17:23:21.374Z,102393.13
2019-03-29T17:25:50.251Z,102394.97
2019-03-29T17:28:18.814Z,102398.20
2019-03-29T17:30:49.010Z,102397.62
2019-03-29T17:33:17.583Z,102395.19
2019-03-29T17:35:47.857Z,102396.63
2019-03-29T17:38:17.497Z,102391.63
2019-03-29T17:40:48.790Z,102389.55
2019-03-29T17:43:17.369Z,102387.16
2019-03-29T17:45:47.431Z,102385.12
2019-03-29T17:48:19.456Z,102389.19
2019-03-29T17:50:48.379Z,102387.19
2019-03-29T17:53:16.935Z,102385.14
2019-03-29T17:55:45.507Z,102384.25
2019-03-29T17:58:14.231Z,102386.55
2019-03-29T18:00:42.826Z,102387.97
2019-03-29T18:03:12.144Z,102385.47
2019-03-29T18:05:41.062Z,102388.14
2019-03-29T18:08:09.844Z,102390.82
2019-03-29T18:10:38.654Z,102391.30
2019-03-29T18:13:07.464Z,102392.80
2019-03-29T18:15:36.665Z,102388.08
2019-03-29T18:18:05.441Z,102392.48
2019-03-29T18:20:34.155Z,102384.75
2019-03-29T18:23:02.712Z,102393.22
2019-03-29T18:25:31.736Z,102390.81
2019-03-29T18:28:00.758Z,102394.08
2019-03-29T18:30:38.878Z,102389.91
2019-03-29T18:33:08.117Z,102387.41
2019-03-29T18:35:36.835Z,102387.05
2019-03-29T18:38:05.894Z,102382.38
2019-03-29T18:40:34.534Z,102385.48
2019-03-29T18:43:03.231Z,102380.38
2019-03-29T18:45:31.866Z,102374.38
2019-03-29T18:48:00.617Z,102376.23
2019-03-29T18:50:29.247Z,102374.55
2019-03-29T18:52:58.188Z,102372.41
2019-03-29T18:55:26.767Z,102370.78
2019-03-29T18:57:55.699Z,102366.91
2019-03-29T19:00:29.610Z,102376.03
2019-03-29T19:02:58.240Z,102371.34
2019-03-29T19:05:27.714Z,102369.27
2019-03-29T19:07:56.249Z,102370.14
2019-03-29T19:10:24.804Z,102366.72
2019-03-29T19:12:53.420Z,102367.64
2019-03-29T19:15:22.440Z,102367.70
2019-03-29T19:17:51.154Z,102367.30
2019-03-29T19:20:27.216Z,102367.34
2019-03-29T19:22:50.003Z,102368.66
2019-03-29T19:25:18.574Z,102370.41
2019-03-29T19:27:47.586Z,102364.41
2019-03-29T19:30:16.733Z,102369.55
2019-03-29T19:32:46.166Z,102366.52
2019-03-29T19:35:16.629Z,102363.93
2019-03-29T19:37:48.901Z,102363.97
2019-03-29T19:40:18.545Z,102361.84
2019-03-29T19:42:47.705Z,102354.55
2019-03-29T19:45:18.958Z,102355.84
2019-03-29T19:47:47.617Z,102356.30
2019-03-29T19:50:17.607Z,102351.14
2019-03-29T19:52:46.191Z,102344.26
2019-03-29T19:55:16.486Z,102341.23
2019-03-29T19:57:46.591Z,102343.84
2019-03-29T20:00:17.224Z,102342.09
2019-03-29T20:02:47.394Z,102344.69
2019-03-29T20:05:27.466Z,102338.22
2019-03-29T20:07:56.380Z,102342.97
2019-03-29T20:10:25.426Z,102338.67
2019-03-29T20:12:54.275Z,102340.38
2019-03-29T20:15:24.392Z,102338.66
2019-03-29T20:17:53.144Z,102332.64
2019-03-29T20:20:26.278Z,102337.81
2019-03-29T20:22:56.003Z,102339.08
2019-03-29T20:25:25.105Z,102336.94
2019-03-29T20:27:57.991Z,102338.23
2019-03-29T20:30:25.253Z,102345.09
2019-03-29T20:32:54.224Z,102341.64
2019-03-29T20:35:22.765Z,102334.72
2019-03-29T20:37:51.851Z,102337.26
2019-03-29T20:40:20.399Z,102342.91
2019-03-29T20:42:48.979Z,102335.13
2019-03-29T20:45:17.600Z,102336.82
2019-03-29T20:47:46.322Z,102335.12
2019-03-29T20:50:18.372Z,102325.17
2019-03-29T20:52:47.410Z,102326.05
2019-03-29T20:55:18.723Z,102327.35
2019-03-29T20:57:47.308Z,102326.03
2019-03-29T21:00:17.078Z,102325.56
2019-03-29T21:02:45.724Z,102317.80
2019-03-29T21:05:17.161Z,102323.41
2019-03-29T21:07:47.262Z,102326.00
2019-03-29T21:10:18.802Z,102323.38
2019-03-29T21:12:47.582Z,102323.38
2019-03-29T21:15:16.320Z,102318.63
2019-03-29T21:17:56.687Z,102324.22
2019-03-29T21:20:16.992Z,102320.80
2019-03-29T21:22:45.578Z,102321.63
2019-03-29T21:25:17.029Z,102320.75
2019-03-29T21:27:45.612Z,102318.58
2019-03-29T21:30:15.808Z,102319.02
2019-03-29T21:32:45.516Z,102317.73
2019-03-29T21:35:16.195Z,102307.82
2019-03-29T21:37:46.512Z,102314.28
2019-03-29T21:40:18.494Z,102311.25
2019-03-29T21:42:47.076Z,102308.67
2019-03-29T21:45:28.065Z,102311.23
2019-03-29T21:48:01.534Z,102302.98
2019-03-29T21:50:18.385Z,102302.98
2019-03-29T21:52:47.453Z,102298.23
2019-03-29T21:55:18.822Z,102302.53
2019-03-29T21:57:47.397Z,102299.09
2019-03-29T22:00:19.053Z,102299.12
2019-03-29T22:02:47.606Z,102295.67
2019-03-29T22:05:19.227Z,102285.77
2019-03-29T22:07:47.778Z,102292.20
2019-03-29T22:10:16.511Z,102294.33
2019-03-29T22:12:45.134Z,102287.86
2019-03-29T22:15:16.392Z,102287.00
2019-03-29T22:17:45.016Z,102286.54
2019-03-29T22:20:14.008Z,102286.97
2019-03-29T22:22:42.569Z,102289.17
2019-03-29T22:25:11.277Z,102288.29
2019-03-29T22:27:40.225Z,102289.12
2019-03-29T22:30:11.164Z,102281.78
2019-03-29T22:32:40.110Z,102283.91
2019-03-29T22:35:09.229Z,102283.48
2019-03-29T22:37:37.850Z,102274.84
2019-03-29T22:40:10.233Z,102277.86
2019-03-29T22:42:38.788Z,102271.38
2019-03-29T22:45:09.484Z,102266.22
2019-03-29T22:47:38.204Z,102263.18
2019-03-29T22:50:08.188Z,102252.80
2019-03-29T22:52:36.757Z,102252.80
2019-03-29T22:55:09.561Z,102254.50
2019-03-29T22:57:38.121Z,102247.59
2019-03-29T23:00:44.016Z,102238.95
2019-03-29T23:03:12.711Z,102244.95
2019-03-29T23:05:41.288Z,102244.95
2019-03-29T23:08:09.992Z,102241.05
2019-03-29T23:10:38.574Z,102241.05
2019-03-29T23:13:07.137Z,102228.12
2019-03-29T23:15:35.923Z,102234.97
2019-03-29T23:18:04.549Z,102234.97
2019-03-29T23:20:33.135Z,102233.71
2019-03-29T23:23:01.688Z,102232.02
2019-03-29T23:25:30.276Z,102231.13
2019-03-29T23:27:58.902Z,102227.26
2019-03-29T23:30:27.481Z,102227.26
2019-03-29T23:32:56.042Z,102215.67
2019-03-29T23:35:24.619Z,102216.11
2019-03-29T23:37:53.250Z,102219.05
2019-03-29T23:40:21.835Z,102209.54
2019-03-29T23:42:50.404Z,102206.98
2019-03-29T23:45:18.984Z,102206.98
2019-03-29T23:47:47.537Z,102208.80
2019-03-29T23:50:19.225Z,102202.87
2019-03-29T23:52:47.780Z,102202.87
2019-03-29T23:55:16.435Z,102190.83
2019-03-29T23:57:44.988Z,102191.08
